createdAt,value
2023-02-08T00:00:24.397Z,103473.09
2023-02-08T00:02:52.103Z,103467.00
2023-02-08T00:05:21.141Z,103460.91
2023-02-08T00:07:48.804Z,103455.91
2023-02-08T00:10:17.966Z,103456.81
2023-02-08T00:12:45.584Z,103466.44
2023-02-08T00:15:13.556Z,103457.00
2023-02-08T00:17:41.145Z,103464.75
2023-02-08T00:20:10.103Z,103458.84
2023-02-08T00:22:38.811Z,103462.34
2023-02-08T00:25:07.659Z,103458.06
2023-02-08T00:27:36.665Z,103456.44
2023-02-08T00:30:04.609Z,103458.06
2023-02-08T00:32:32.205Z,103456.09
2023-02-08T00:34:59.877Z,103458.84
2023-02-08T00:37:27.598Z,103463.41
2023-02-08T00:39:55.258Z,103457.16
2023-02-08T00:42:25.288Z,103467.69
2023-02-08T00:44:55.389Z,103466.78
2023-02-08T00:47:23.161Z,103465.09
2023-02-08T00:49:50.868Z,103465.28
2023-02-08T00:52:19.523Z,103468.94
2023-02-08T00:54:47.248Z,103468.19
2023-02-08T00:57:15.215Z,103464.84
2023-02-08T00:59:42.892Z,103463.94
2023-02-08T01:02:12.119Z,103467.25
2023-02-08T01:04:39.785Z,103475.78
2023-02-08T01:07:07.611Z,103471.94
2023-02-08T01:09:36.113Z,103466.59
2023-02-08T01:12:04.858Z,103471.00
2023-02-08T01:14:33.982Z,103475.28
2023-02-08T01:17:01.881Z,103473.41
2023-02-08T01:19:30.973Z,103468.84
2023-02-08T01:21:58.566Z,103460.91
2023-02-08T01:24:26.189Z,103457.41
2023-02-08T01:26:53.857Z,103465.00
2023-02-08T01:29:21.474Z,103468.50
2023-02-08T01:31:49.163Z,103457.25
2023-02-08T01:34:16.841Z,103450.22
2023-02-08T01:36:45.770Z,103452.81
2023-02-08T01:39:13.612Z,103452.06
2023-02-08T01:41:44.258Z,103448.72
2023-02-08T01:44:45.633Z,103454.06
2023-02-08T01:47:13.584Z,103450.75
2023-02-08T01:49:41.588Z,103448.31
2023-02-08T01:52:14.313Z,103444.97
2023-02-08T01:54:49.823Z,103446.66
2023-02-08T01:57:20.717Z,103452.59
2023-02-08T01:59:51.273Z,103451.81
2023-02-08T02:02:22.463Z,103448.31
2023-02-08T02:04:51.941Z,103452.72
2023-02-08T02:07:23.595Z,103446.81
2023-02-08T02:09:57.057Z,103437.38
2023-02-08T02:12:28.161Z,103431.66
2023-02-08T02:14:56.445Z,103437.72
2023-02-08T02:17:24.113Z,103430.91
2023-02-08T02:19:58.642Z,103434.22
2023-02-08T02:22:50.572Z,103434.22
2023-02-08T02:25:48.986Z,103429.06
2023-02-08T02:28:34.881Z,103429.22
2023-02-08T02:31:50.144Z,103433.63
2023-02-08T02:34:27.179Z,103435.47
2023-02-08T02:37:03.593Z,103437.34
2023-02-08T02:39:39.968Z,103426.81
2023-02-08T02:42:30.860Z,103425.88
2023-02-08T02:45:07.165Z,103430.13
2023-02-08T02:47:45.445Z,103430.31
2023-02-08T02:50:20.966Z,103433.81
2023-02-08T02:52:57.916Z,103435.66
2023-02-08T02:55:29.210Z,103449.50
2023-02-08T02:57:59.572Z,103440.81
2023-02-08T03:00:30.977Z,103441.56
2023-02-08T03:03:00.010Z,103427.72
2023-02-08T03:05:30.008Z,103441.38
2023-02-08T03:08:21.966Z,103439.75
2023-02-08T03:11:15.457Z,103445.81
2023-02-08T03:13:59.187Z,103441.56
2023-02-08T03:16:39.715Z,103447.69
2023-02-08T03:19:16.412Z,103433.81
2023-02-08T03:21:51.995Z,103441.56
2023-02-08T03:24:26.669Z,103440.31
2023-02-08T03:26:58.913Z,103439.22
2023-02-08T03:29:38.369Z,103440.75
2023-02-08T03:32:11.046Z,103448.31
2023-02-08T03:34:47.111Z,103438.72
2023-02-08T03:37:19.519Z,103440.41
2023-02-08T03:39:49.849Z,103444.66
2023-02-08T03:42:23.094Z,103438.53
2023-02-08T03:44:57.114Z,103442.25
2023-02-08T03:47:27.838Z,103440.56
2023-02-08T03:50:02.888Z,103457.00
2023-02-08T03:52:32.906Z,103453.31
2023-02-08T03:55:05.355Z,103458.31
2023-02-08T03:57:37.473Z,103454.84
2023-02-08T04:00:09.130Z,103455.41
2023-02-08T04:02:44.014Z,103458.56
2023-02-08T04:05:13.536Z,103458.75
2023-02-08T04:07:41.181Z,103453.56
2023-02-08T04:10:09.534Z,103444.31
2023-02-08T04:12:37.475Z,103448.56
2023-02-08T04:15:05.675Z,103447.81
2023-02-08T04:17:33.308Z,103447.97
2023-02-08T04:20:01.233Z,103449.66
2023-02-08T04:22:30.190Z,103439.16
2023-02-08T04:24:57.796Z,103445.66
2023-02-08T04:27:25.408Z,103436.81
2023-02-08T04:29:53.102Z,103430.22
2023-02-08T04:32:20.733Z,103424.69
2023-02-08T04:34:48.463Z,103430.44
2023-02-08T04:37:16.083Z,103427.84
2023-02-08T04:39:45.049Z,103422.50
2023-02-08T04:42:12.640Z,103425.09
2023-02-08T04:44:40.232Z,103426.94
2023-02-08T04:47:08.028Z,103428.63
2023-02-08T04:49:35.666Z,103431.19
2023-02-08T04:52:03.286Z,103427.84
2023-02-08T04:54:31.014Z,103432.09
2023-02-08T04:56:59.933Z,103431.94
2023-02-08T04:59:27.536Z,103435.25
2023-02-08T05:01:55.243Z,103439.84
2023-02-08T05:04:22.892Z,103433.78
2023-02-08T05:06:50.480Z,103430.44
2023-02-08T05:09:18.076Z,103432.09
2023-02-08T05:11:45.642Z,103433.94
2023-02-08T05:14:14.584Z,103425.25
2023-02-08T05:16:42.235Z,103426.19
2023-02-08T05:19:10.659Z,103421.59
2023-02-08T05:21:38.308Z,103420.50
2023-02-08T05:24:07.093Z,103421.25
2023-02-08T05:26:34.684Z,103422.00
2023-02-08T05:29:02.262Z,103426.06
2023-02-08T05:31:31.648Z,103423.34
2023-02-08T05:33:59.292Z,103428.34
2023-02-08T05:36:26.944Z,103426.31
2023-02-08T05:38:54.562Z,103432.09
2023-02-08T05:41:22.407Z,103428.25
2023-02-08T05:43:50.065Z,103429.72
2023-02-08T05:46:17.727Z,103432.13
2023-02-08T05:48:46.718Z,103433.22
2023-02-08T05:51:14.391Z,103434.88
2023-02-08T05:53:43.437Z,103433.97
2023-02-08T05:56:11.020Z,103428.97
2023-02-08T05:58:39.066Z,103423.97
2023-02-08T06:01:10.391Z,103428.25
2023-02-08T06:03:38.334Z,103421.41
2023-02-08T06:06:11.074Z,103422.13
2023-02-08T06:08:39.082Z,103430.97
2023-02-08T06:11:07.199Z,103437.25
2023-02-08T06:13:35.038Z,103432.09
2023-02-08T06:16:02.876Z,103439.66
2023-02-08T06:18:30.492Z,103436.31
2023-02-08T06:20:58.363Z,103447.59
2023-02-08T06:23:27.480Z,103449.41
2023-02-08T06:25:55.096Z,103448.50
2023-02-08T06:28:22.719Z,103451.25
2023-02-08T06:30:50.394Z,103447.59
2023-02-08T06:33:18.370Z,103452.16
2023-02-08T06:35:46.665Z,103458.09
2023-02-08T06:38:14.675Z,103465.84
2023-02-08T06:40:43.676Z,103467.66
2023-02-08T06:43:11.320Z,103463.28
2023-02-08T06:45:38.943Z,103466.75
2023-02-08T06:48:06.706Z,103467.31
2023-02-08T06:50:34.284Z,103463.09
2023-02-08T06:53:01.916Z,103462.31
2023-02-08T06:55:29.498Z,103473.44
2023-02-08T06:57:58.398Z,103466.41
2023-02-08T07:00:26.043Z,103467.50
2023-02-08T07:02:53.622Z,103476.03
2023-02-08T07:05:21.224Z,103473.44
2023-02-08T07:07:49.449Z,103479.50
2023-02-08T07:10:17.246Z,103465.09
2023-02-08T07:12:44.846Z,103471.34
2023-02-08T07:15:14.193Z,103461.94
2023-02-08T07:17:41.819Z,103456.94
2023-02-08T07:20:11.437Z,103458.75
2023-02-08T07:22:39.638Z,103453.94
2023-02-08T07:25:08.710Z,103460.97
2023-02-08T07:27:36.801Z,103458.69
2023-02-08T07:30:05.017Z,103459.63
2023-02-08T07:32:34.897Z,103457.38
2023-02-08T07:35:02.630Z,103454.03
2023-02-08T07:37:30.206Z,103456.81
2023-02-08T07:39:57.867Z,103463.06
2023-02-08T07:42:25.444Z,103457.88
2023-02-08T07:45:04.553Z,103455.81
2023-02-08T07:47:32.197Z,103457.97
2023-02-08T07:50:01.178Z,103459.22
2023-02-08T07:52:29.057Z,103450.91
2023-02-08T07:54:57.004Z,103447.91
2023-02-08T07:57:24.616Z,103446.56
2023-02-08T07:59:54.155Z,103448.59
2023-02-08T08:02:21.904Z,103443.75
2023-02-08T08:04:49.580Z,103445.00
2023-02-08T08:07:18.504Z,103445.34
2023-02-08T08:09:46.101Z,103450.69
2023-02-08T08:12:13.684Z,103451.78
2023-02-08T08:14:41.258Z,103454.84
2023-02-08T08:17:08.908Z,103457.78
2023-02-08T08:19:36.499Z,103466.94
2023-02-08T08:22:04.111Z,103457.28
2023-02-08T08:24:35.577Z,103463.53
2023-02-08T08:27:04.692Z,103461.44
2023-02-08T08:29:32.906Z,103461.94
2023-02-08T08:32:00.515Z,103455.28
2023-02-08T08:34:30.582Z,103460.00
2023-02-08T08:36:58.230Z,103464.94
2023-02-08T08:39:27.282Z,103470.56
2023-02-08T08:41:58.547Z,103468.50
2023-02-08T08:44:26.609Z,103463.81
2023-02-08T08:46:56.483Z,103469.47
2023-02-08T08:49:24.083Z,103465.34
2023-02-08T08:51:51.950Z,103469.22
2023-02-08T08:54:20.547Z,103465.88
2023-02-08T08:56:48.689Z,103460.69
2023-02-08T08:59:17.687Z,103461.75
2023-02-08T09:01:45.429Z,103466.38
2023-02-08T09:04:13.198Z,103473.69
2023-02-08T09:06:40.857Z,103469.75
2023-02-08T09:09:08.831Z,103465.81
2023-02-08T09:11:36.449Z,103461.75
2023-02-08T09:14:04.807Z,103463.16
2023-02-08T09:16:34.576Z,103466.19
2023-02-08T09:19:02.980Z,103458.91
2023-02-08T09:21:30.647Z,103454.56
2023-02-08T09:23:58.598Z,103453.38
2023-02-08T09:26:26.708Z,103437.69
2023-02-08T09:28:54.551Z,103444.28
2023-02-08T09:31:24.097Z,103442.16
2023-02-08T09:33:54.961Z,103446.91
2023-02-08T09:36:24.265Z,103438.09
2023-02-08T09:38:57.463Z,103440.56
2023-02-08T09:41:40.077Z,103448.19
2023-02-08T09:44:21.145Z,103439.38
2023-02-08T09:46:57.029Z,103435.59
2023-02-08T09:49:31.920Z,103438.09
2023-02-08T09:52:03.604Z,103434.44
2023-02-08T09:54:34.690Z,103430.63
2023-02-08T09:57:07.048Z,103424.66
2023-02-08T09:59:36.392Z,103439.81
2023-02-08T10:02:26.285Z,103431.13
2023-02-08T10:05:01.376Z,103433.84
2023-02-08T10:07:30.022Z,103435.69
2023-02-08T10:10:01.161Z,103440.28
2023-02-08T10:12:38.947Z,103437.69
2023-02-08T10:15:29.648Z,103433.72
2023-02-08T10:18:12.165Z,103429.72
2023-02-08T10:20:51.500Z,103435.25
2023-02-08T10:23:33.860Z,103425.75
2023-02-08T10:26:13.439Z,103419.81
2023-02-08T10:29:06.017Z,103414.59
2023-02-08T10:31:49.334Z,103410.16
2023-02-08T10:34:25.682Z,103412.91
2023-02-08T10:36:55.186Z,103404.22
2023-02-08T10:39:29.169Z,103410.91
2023-02-08T10:41:57.277Z,103401.91
2023-02-08T10:44:35.166Z,103389.31
2023-02-08T10:47:13.782Z,103390.38
2023-02-08T10:49:50.147Z,103384.69
2023-02-08T10:52:19.665Z,103391.34
2023-02-08T10:54:47.354Z,103382.91
2023-02-08T10:57:18.764Z,103378.09
2023-02-08T10:59:50.226Z,103379.09
2023-02-08T11:02:26.666Z,103373.00
2023-02-08T11:05:07.953Z,103374.50
2023-02-08T11:07:37.382Z,103370.72
2023-02-08T11:10:26.130Z,103368.41
2023-02-08T11:12:56.587Z,103371.53
2023-02-08T11:15:26.980Z,103377.75
2023-02-08T11:17:58.496Z,103385.34
2023-02-08T11:20:33.024Z,103388.38
2023-02-08T11:23:02.116Z,103380.72
2023-02-08T11:25:36.398Z,103385.56
2023-02-08T11:28:05.438Z,103386.00
2023-02-08T11:30:33.853Z,103388.16
2023-02-08T11:33:20.437Z,103381.28
2023-02-08T11:36:01.494Z,103382.34
2023-02-08T11:38:32.064Z,103373.81
2023-02-08T11:41:03.223Z,103387.06
2023-02-08T11:43:33.217Z,103377.63
2023-02-08T11:46:03.051Z,103383.25
2023-02-08T11:48:40.426Z,103368.13
2023-02-08T11:51:08.746Z,103373.63
2023-02-08T11:53:41.340Z,103378.75
2023-02-08T11:56:19.575Z,103372.78
2023-02-08T11:59:03.349Z,103377.16
2023-02-08T12:01:33.280Z,103366.91
2023-02-08T12:04:03.324Z,103372.69
2023-02-08T12:07:00.962Z,103372.94
2023-02-08T12:09:56.391Z,103362.00
2023-02-08T12:12:31.354Z,103357.97
2023-02-08T12:15:08.383Z,103362.19
2023-02-08T12:17:49.570Z,103357.88
2023-02-08T12:20:42.128Z,103356.72
2023-02-08T12:23:29.187Z,103353.50
2023-02-08T12:26:07.931Z,103348.31
2023-02-08T12:28:47.182Z,103345.03
2023-02-08T12:31:24.302Z,103344.28
2023-02-08T12:34:03.649Z,103337.47
2023-02-08T12:37:13.418Z,103340.09
2023-02-08T12:40:04.894Z,103338.63
2023-02-08T12:42:49.147Z,103330.50
2023-02-08T12:45:41.990Z,103333.19
2023-02-08T12:48:22.424Z,103329.22
2023-02-08T12:50:56.301Z,103327.09
2023-02-08T12:53:31.767Z,103330.69
2023-02-08T12:56:03.228Z,103329.03
2023-02-08T12:58:36.696Z,103331.78
2023-02-08T13:01:12.901Z,103328.09
2023-02-08T13:03:46.723Z,103324.00
2023-02-08T13:06:18.704Z,103320.75
2023-02-08T13:08:51.495Z,103317.00
2023-02-08T13:11:25.051Z,103307.72
2023-02-08T13:13:59.755Z,103307.47
2023-02-08T13:16:30.873Z,103305.88
2023-02-08T13:19:24.530Z,103303.91
2023-02-08T13:21:53.383Z,103299.94
2023-02-08T13:24:29.608Z,103305.81
2023-02-08T13:26:57.356Z,103297.88
2023-02-08T13:29:28.390Z,103300.63
2023-02-08T13:32:00.569Z,103296.97
2023-02-08T13:34:37.341Z,103292.84
2023-02-08T13:37:16.675Z,103284.50
2023-02-08T13:39:58.858Z,103286.47
2023-02-08T13:42:31.804Z,103277.00
2023-02-08T13:45:03.019Z,103276.56
2023-02-08T13:47:33.178Z,103275.53
2023-02-08T13:50:02.130Z,103270.19
2023-02-08T13:52:53.201Z,103262.94
2023-02-08T13:55:45.982Z,103272.84
2023-02-08T13:58:37.397Z,103273.34
2023-02-08T14:01:21.334Z,103273.13
2023-02-08T14:04:30.341Z,103266.75
2023-02-08T14:07:18.593Z,103262.78
2023-02-08T14:09:54.008Z,103266.97
2023-02-08T14:12:28.202Z,103258.56
2023-02-08T14:15:27.872Z,103251.56
2023-02-08T14:17:59.750Z,103245.53
2023-02-08T14:20:32.149Z,103246.63
2023-02-08T14:23:02.716Z,103243.44
2023-02-08T14:25:39.556Z,103238.63
2023-02-08T14:28:08.561Z,103239.97
2023-02-08T14:30:38.527Z,103239.97
2023-02-08T14:33:22.395Z,103227.81
2023-02-08T14:35:56.133Z,103229.63
2023-02-08T14:38:50.415Z,103229.38
2023-02-08T14:41:47.836Z,103225.38
2023-02-08T14:44:48.907Z,103221.41
2023-02-08T14:47:53.161Z,103222.94
2023-02-08T14:50:26.913Z,103225.44
2023-02-08T14:53:02.253Z,103216.69
2023-02-08T14:55:35.207Z,103220.22
2023-02-08T14:58:03.961Z,103212.16
2023-02-08T15:00:36.516Z,103212.69
2023-02-08T15:03:06.647Z,103206.31
2023-02-08T15:05:41.327Z,103208.56
2023-02-08T15:08:09.250Z,103203.13
2023-02-08T15:10:44.872Z,103201.16
2023-02-08T15:13:19.348Z,103198.28
2023-02-08T15:15:51.636Z,103195.47
2023-02-08T15:18:21.517Z,103186.34
2023-02-08T15:21:03.840Z,103187.69
2023-02-08T15:23:31.960Z,103181.81
2023-02-08T15:26:02.842Z,103177.03
2023-02-08T15:28:31.838Z,103172.22
2023-02-08T15:31:01.706Z,103173.66
2023-02-08T15:33:29.727Z,103176.59
2023-02-08T15:36:01.141Z,103178.59
2023-02-08T15:38:30.564Z,103177.97
2023-02-08T15:41:05.620Z,103168.72
2023-02-08T15:43:34.202Z,103169.78
2023-02-08T15:46:04.048Z,103180.41
2023-02-08T15:48:33.663Z,103161.50
2023-02-08T15:51:03.966Z,103172.13
2023-02-08T15:53:32.474Z,103160.13
2023-02-08T15:56:04.337Z,103162.09
2023-02-08T15:58:36.732Z,103164.06
2023-02-08T16:01:07.700Z,103155.59
2023-02-08T16:03:36.671Z,103151.56
2023-02-08T16:06:07.997Z,103162.41
2023-02-08T16:08:40.805Z,103169.59
2023-02-08T16:11:12.679Z,103165.41
2023-02-08T16:13:46.729Z,103169.22
2023-02-08T16:16:20.939Z,103160.72
2023-02-08T16:18:50.920Z,103164.63
2023-02-08T16:21:27.108Z,103167.50
2023-02-08T16:23:57.526Z,103168.78
2023-02-08T16:26:28.674Z,103166.59
2023-02-08T16:28:59.788Z,103168.66
2023-02-08T16:31:30.548Z,103166.56
2023-02-08T16:34:01.020Z,103167.88
2023-02-08T16:36:37.191Z,103156.13
2023-02-08T16:39:35.968Z,103154.81
2023-02-08T16:42:15.473Z,103156.88
2023-02-08T16:44:59.982Z,103160.78
2023-02-08T16:47:36.006Z,103157.63
2023-02-08T16:50:03.724Z,103154.50
2023-02-08T16:52:32.850Z,103158.38
2023-02-08T16:55:00.511Z,103148.47
2023-02-08T16:57:40.422Z,103158.63
2023-02-08T17:00:16.751Z,103152.88
2023-02-08T17:02:44.366Z,103158.59
2023-02-08T17:05:12.770Z,103154.66
2023-02-08T17:07:41.751Z,103154.38
2023-02-08T17:10:18.119Z,103152.25
2023-02-08T17:12:45.791Z,103154.63
2023-02-08T17:15:13.430Z,103160.31
2023-02-08T17:17:41.103Z,103166.94
2023-02-08T17:20:18.842Z,103159.50
2023-02-08T17:22:47.927Z,103150.34
2023-02-08T17:25:19.091Z,103143.03
2023-02-08T17:27:48.585Z,103134.69
2023-02-08T17:30:20.821Z,103133.50
2023-02-08T17:32:49.735Z,103132.19
2023-02-08T17:35:18.312Z,103129.16
2023-02-08T17:37:49.483Z,103133.16
2023-02-08T17:40:17.838Z,103127.81
2023-02-08T17:42:47.595Z,103122.19
2023-02-08T17:45:15.392Z,103118.41
2023-02-08T17:47:42.990Z,103124.25
2023-02-08T17:50:11.567Z,103129.94
2023-02-08T17:52:39.905Z,103113.94
2023-02-08T17:55:12.445Z,103121.28
2023-02-08T17:57:41.823Z,103111.38
2023-02-08T18:00:12.394Z,103108.38
2023-02-08T18:02:43.910Z,103104.44
2023-02-08T18:05:11.549Z,103105.84
2023-02-08T18:07:39.830Z,103096.81
2023-02-08T18:10:10.621Z,103095.63
2023-02-08T18:12:39.054Z,103097.97
2023-02-08T18:15:08.138Z,103096.75
2023-02-08T18:17:36.255Z,103089.44
2023-02-08T18:20:03.947Z,103089.94
2023-02-08T18:22:31.583Z,103094.84
2023-02-08T18:24:59.455Z,103092.88
2023-02-08T18:27:28.449Z,103083.28
2023-02-08T18:29:56.400Z,103080.22
2023-02-08T18:32:24.103Z,103079.03
2023-02-08T18:34:51.705Z,103080.28
2023-02-08T18:37:19.300Z,103078.31
2023-02-08T18:39:47.128Z,103069.97
2023-02-08T18:42:14.758Z,103072.41
2023-02-08T18:44:43.714Z,103066.03
2023-02-08T18:47:11.837Z,103058.84
2023-02-08T18:49:41.277Z,103050.75
2023-02-08T18:52:09.901Z,103052.31
2023-02-08T18:54:38.542Z,103045.91
2023-02-08T18:57:09.472Z,103047.44
2023-02-08T18:59:37.734Z,103044.56
2023-02-08T19:02:07.858Z,103038.63
2023-02-08T19:04:37.714Z,103029.28
2023-02-08T19:07:05.358Z,103025.00
2023-02-08T19:09:36.073Z,103031.13
2023-02-08T19:12:04.215Z,103033.72
2023-02-08T19:14:32.332Z,103023.78
2023-02-08T19:17:00.430Z,103021.06
2023-02-08T19:19:29.406Z,103020.91
2023-02-08T19:21:57.101Z,103013.91
2023-02-08T19:24:24.848Z,103011.03
2023-02-08T19:26:52.462Z,103009.97
2023-02-08T19:29:22.217Z,103012.28
2023-02-08T19:31:50.840Z,103006.19
2023-02-08T19:34:19.449Z,102999.16
2023-02-08T19:36:51.613Z,102990.59
2023-02-08T19:39:21.951Z,102990.59
2023-02-08T19:41:50.260Z,102981.41
2023-02-08T19:44:19.516Z,102977.28
2023-02-08T19:46:49.633Z,102972.22
2023-02-08T19:49:17.404Z,102969.94
2023-02-08T19:51:45.444Z,102969.28
2023-02-08T19:54:16.938Z,102966.69
2023-02-08T19:56:44.852Z,102958.91
2023-02-08T19:59:18.229Z,102961.50
2023-02-08T20:01:46.617Z,102962.28
2023-02-08T20:04:14.611Z,102957.19
2023-02-08T20:06:44.954Z,102954.75
2023-02-08T20:09:16.479Z,102954.00
2023-02-08T20:11:56.513Z,102965.13
2023-02-08T20:14:25.600Z,102952.44
2023-02-08T20:16:53.629Z,102950.63
2023-02-08T20:19:21.382Z,102953.25
2023-02-08T20:21:49.545Z,102948.16
2023-02-08T20:24:18.665Z,102948.03
2023-02-08T20:26:48.300Z,102948.03
2023-02-08T20:29:16.992Z,102948.16
2023-02-08T20:31:47.516Z,102947.25
2023-02-08T20:34:16.862Z,102952.59
2023-02-08T20:36:57.507Z,102954.28
2023-02-08T20:39:34.514Z,102946.50
2023-02-08T20:42:02.215Z,102938.56
2023-02-08T20:44:31.481Z,102935.06
2023-02-08T20:46:59.339Z,102927.28
2023-02-08T20:49:26.990Z,102929.88
2023-02-08T20:51:55.226Z,102924.69
2023-02-08T20:54:24.890Z,102925.59
2023-02-08T20:56:54.846Z,102911.69
2023-02-08T20:59:23.539Z,102922.84
2023-02-08T21:01:51.681Z,102916.75
2023-02-08T21:04:23.163Z,102920.09
2023-02-08T21:06:52.231Z,102907.63
2023-02-08T21:09:20.888Z,102908.53
2023-02-08T21:11:48.836Z,102912.81
2023-02-08T21:14:20.800Z,102912.53
2023-02-08T21:16:51.148Z,102914.97
2023-02-08T21:19:20.600Z,102907.03
2023-02-08T21:21:51.129Z,102903.41
2023-02-08T21:24:18.787Z,102907.69
2023-02-08T21:26:46.435Z,102910.91
2023-02-08T21:29:14.097Z,102910.59
2023-02-08T21:31:43.207Z,102905.28
2023-02-08T21:34:12.842Z,102905.78
2023-02-08T21:36:40.736Z,102908.97
2023-02-08T21:39:08.426Z,102911.31
2023-02-08T21:41:36.086Z,102917.13
2023-02-08T21:44:08.019Z,102923.84
2023-02-08T21:46:35.935Z,102913.19
2023-02-08T21:49:22.522Z,102918.22
2023-02-08T21:52:07.884Z,102912.59
2023-02-08T21:54:45.810Z,102906.22
2023-02-08T21:57:17.783Z,102912.94
2023-02-08T21:59:46.011Z,102896.19
2023-02-08T22:02:16.646Z,102903.81
2023-02-08T22:04:46.776Z,102899.88
2023-02-08T22:07:14.821Z,102892.75
2023-02-08T22:09:42.539Z,102892.44
2023-02-08T22:12:14.699Z,102885.13
2023-02-08T22:14:42.565Z,102874.63
2023-02-08T22:17:10.757Z,102868.38
2023-02-08T22:19:38.755Z,102874.94
2023-02-08T22:22:08.294Z,102863.38
2023-02-08T22:24:36.920Z,102864.03
2023-02-08T22:27:04.771Z,102863.56
2023-02-08T22:29:33.044Z,102861.59
2023-02-08T22:32:01.120Z,102854.44
2023-02-08T22:34:29.261Z,102855.06
2023-02-08T22:36:56.904Z,102859.97
2023-02-08T22:39:25.970Z,102864.88
2023-02-08T22:41:53.625Z,102856.03
2023-02-08T22:44:21.294Z,102858.34
2023-02-08T22:46:48.954Z,102855.44
2023-02-08T22:49:16.758Z,102856.97
2023-02-08T22:51:44.419Z,102857.59
2023-02-08T22:54:12.022Z,102855.78
2023-02-08T22:56:41.079Z,102851.19
2023-02-08T22:59:08.696Z,102850.28
2023-02-08T23:01:36.403Z,102843.91
2023-02-08T23:04:04.785Z,102836.91
2023-02-08T23:06:32.436Z,102838.44
2023-02-08T23:09:00.084Z,102833.84
2023-02-08T23:11:27.741Z,102828.56
2023-02-08T23:13:56.806Z,102823.81
2023-02-08T23:16:24.654Z,102823.69
2023-02-08T23:18:52.318Z,102831.28
2023-02-08T23:21:21.815Z,102818.19
2023-02-08T23:23:49.704Z,102815.34
2023-02-08T23:26:19.802Z,102816.84
2023-02-08T23:28:49.838Z,102816.72
2023-02-08T23:31:19.880Z,102810.31
2023-02-08T23:33:47.657Z,102806.81
2023-02-08T23:36:17.807Z,102801.63
2023-02-08T23:38:45.747Z,102797.25
2023-02-08T23:41:16.021Z,102797.25
2023-02-08T23:43:44.085Z,102797.25
2023-02-08T23:46:15.647Z,102798.00
2023-02-08T23:48:44.758Z,102800.44
2023-02-08T23:51:12.634Z,102793.41
2023-02-08T23:53:40.518Z,102791.75
2023-02-08T23:56:14.484Z,102787.47
2023-02-08T23:58:42.499Z,102780.47
